createdAt,value
2022-08-16T00:02:31.070Z,45.43
2022-08-16T00:05:00.528Z,42.97
2022-08-16T00:07:31.096Z,44.60
2022-08-16T00:09:58.976Z,48.33
2022-08-16T00:12:30.391Z,46.13
2022-08-16T00:15:00.148Z,42.85
2022-08-16T00:17:28.188Z,43.30
2022-08-16T00:19:55.763Z,45.97
2022-08-16T00:22:25.370Z,47.60
2022-08-16T00:24:54.293Z,47.17
2022-08-16T00:27:23.674Z,43.85
2022-08-16T00:30:08.325Z,44.17
2022-08-16T00:32:40.113Z,45.90
2022-08-16T00:35:15.523Z,45.58
2022-08-16T00:37:57.784Z,42.05
2022-08-16T00:40:34.926Z,43.88
2022-08-16T00:43:12.057Z,45.58
2022-08-16T00:46:33.240Z,45.17
2022-08-16T00:48:53.507Z,44.10
2022-08-16T00:51:23.651Z,46.42
2022-08-16T00:53:53.267Z,43.55
2022-08-16T00:56:58.240Z,42.50
2022-08-16T00:59:15.050Z,39.60
2022-08-16T01:01:43.184Z,40.10
2022-08-16T01:04:29.149Z,39.35
2022-08-16T01:07:02.413Z,40.50
2022-08-16T01:09:33.128Z,40.75
2022-08-16T01:12:03.326Z,41.38
2022-08-16T01:14:36.406Z,40.03
2022-08-16T01:17:04.372Z,37.92
2022-08-16T01:19:43.687Z,38.42
2022-08-16T01:22:58.952Z,39.60
2022-08-16T01:25:34.092Z,38.72
2022-08-16T01:28:05.030Z,35.83
2022-08-16T01:30:40.016Z,35.08
2022-08-16T01:33:19.229Z,37.13
2022-08-16T01:36:00.157Z,36.10
2022-08-16T01:38:57.182Z,36.80
2022-08-16T01:41:29.661Z,36.33
2022-08-16T01:44:01.042Z,36.97
2022-08-16T01:46:37.933Z,34.88
2022-08-16T01:49:09.935Z,36.90
2022-08-16T01:51:39.409Z,35.03
2022-08-16T01:54:07.240Z,37.05
2022-08-16T01:56:34.822Z,40.05
2022-08-16T01:59:04.945Z,36.85
2022-08-16T02:01:32.982Z,38.70
2022-08-16T02:04:10.717Z,37.38
2022-08-16T02:06:45.980Z,40.10
2022-08-16T02:09:15.323Z,37.63
2022-08-16T02:11:53.272Z,37.97
2022-08-16T02:14:27.281Z,37.60
2022-08-16T02:16:56.501Z,38.72
2022-08-16T02:19:25.420Z,37.35
2022-08-16T02:22:34.623Z,36.47
2022-08-16T02:25:02.148Z,35.95
2022-08-16T02:27:28.863Z,38.42
2022-08-16T02:30:04.878Z,36.15
2022-08-16T02:32:49.849Z,36.33
2022-08-16T02:35:22.893Z,36.75
2022-08-16T02:37:52.573Z,35.15
2022-08-16T02:40:22.204Z,35.05
2022-08-16T02:42:50.710Z,37.55
2022-08-16T02:45:27.959Z,34.75
2022-08-16T02:48:01.818Z,34.88
2022-08-16T02:50:53.509Z,36.63
2022-08-16T02:53:23.398Z,34.03
2022-08-16T02:55:51.345Z,34.13
2022-08-16T02:58:20.006Z,33.42
2022-08-16T03:00:53.133Z,35.35
2022-08-16T03:03:23.637Z,34.03
2022-08-16T03:05:52.497Z,38.05
2022-08-16T03:08:50.589Z,36.38
2022-08-16T03:11:16.447Z,38.03
2022-08-16T03:13:56.682Z,38.30
2022-08-16T03:16:37.978Z,39.72
2022-08-16T03:19:08.282Z,42.25
2022-08-16T03:21:37.989Z,42.22
2022-08-16T03:24:28.726Z,42.65
2022-08-16T03:27:02.784Z,43.13
2022-08-16T03:29:33.732Z,44.25
2022-08-16T03:32:02.003Z,43.30
2022-08-16T03:34:30.747Z,44.13
2022-08-16T03:37:00.513Z,44.45
2022-08-16T03:39:27.994Z,45.42
2022-08-16T03:41:59.211Z,46.13
2022-08-16T03:44:43.423Z,47.22
2022-08-16T03:47:19.330Z,48.40
2022-08-16T03:49:51.314Z,47.17
2022-08-16T03:52:23.493Z,48.00
2022-08-16T03:54:53.430Z,47.50
2022-08-16T03:57:32.014Z,49.90
2022-08-16T04:00:20.465Z,51.22
2022-08-16T04:03:08.781Z,50.38
2022-08-16T04:05:46.774Z,52.25
2022-08-16T04:08:23.198Z,51.03
2022-08-16T04:10:53.644Z,52.63
2022-08-16T04:14:00.960Z,54.60
2022-08-16T04:16:09.519Z,54.20
2022-08-16T04:18:54.375Z,55.72
2022-08-16T04:21:33.284Z,56.22
2022-08-16T04:24:01.833Z,56.67
2022-08-16T04:26:32.141Z,54.70
2022-08-16T04:29:16.371Z,54.40
2022-08-16T04:31:55.666Z,55.83
2022-08-16T04:34:30.097Z,53.10
2022-08-16T04:36:58.999Z,53.28
2022-08-16T04:42:15.889Z,52.88
2022-08-16T04:44:53.589Z,51.78
2022-08-16T04:47:31.315Z,51.63
2022-08-16T04:50:01.454Z,50.78
2022-08-16T04:52:34.830Z,52.03
2022-08-16T04:55:13.683Z,51.50
2022-08-16T04:57:42.462Z,53.88
2022-08-16T05:00:31.215Z,53.17
2022-08-16T05:03:02.976Z,52.83
2022-08-16T05:05:36.922Z,52.75
2022-08-16T05:08:29.638Z,53.47
2022-08-16T05:11:05.764Z,54.70
2022-08-16T05:13:41.783Z,52.85
2022-08-16T05:16:22.961Z,54.72
2022-08-16T05:21:21.623Z,53.83
2022-08-16T05:23:55.849Z,54.63
2022-08-16T05:26:28.038Z,57.58
2022-08-16T05:28:56.793Z,55.22
2022-08-16T05:31:29.197Z,55.83
2022-08-16T05:33:59.344Z,56.80
2022-08-16T05:36:33.745Z,57.95
2022-08-16T05:39:01.400Z,58.30
2022-08-16T05:41:29.424Z,57.50
2022-08-16T05:44:00.327Z,57.60
2022-08-16T05:46:33.190Z,55.25
2022-08-16T05:49:05.421Z,55.65
2022-08-16T05:51:35.190Z,57.03
2022-08-16T05:54:11.395Z,56.50
2022-08-16T05:56:42.855Z,55.35
2022-08-16T05:59:10.734Z,55.55
2022-08-16T06:01:38.919Z,57.72
2022-08-16T06:04:12.888Z,55.85
2022-08-16T06:06:57.447Z,56.25
2022-08-16T06:09:43.094Z,56.53
2022-08-16T06:12:27.530Z,54.03
2022-08-16T06:15:07.868Z,55.47
2022-08-16T06:17:43.203Z,56.63
2022-08-16T06:20:18.480Z,56.28
2022-08-16T06:22:57.502Z,56.42
2022-08-16T06:25:36.787Z,57.55
2022-08-16T06:28:09.501Z,57.70
2022-08-16T06:30:43.925Z,59.92
2022-08-16T06:33:13.402Z,59.30
2022-08-16T06:35:49.365Z,59.00
2022-08-16T06:38:31.906Z,56.53
2022-08-16T06:41:05.845Z,60.75
2022-08-16T06:43:33.813Z,59.28
2022-08-16T06:46:04.660Z,59.80
2022-08-16T06:48:33.861Z,61.47
2022-08-16T06:51:05.862Z,59.30
2022-08-16T06:53:35.632Z,58.85
2022-08-16T06:56:14.450Z,60.40
2022-08-16T06:58:51.406Z,59.60
2022-08-16T07:01:44.810Z,60.83
2022-08-16T07:04:10.348Z,59.13
2022-08-16T07:06:40.204Z,58.63
2022-08-16T07:11:45.844Z,60.38
2022-08-16T07:14:23.765Z,60.05
2022-08-16T07:16:53.055Z,58.88
2022-08-16T07:19:20.099Z,57.13
2022-08-16T07:21:46.899Z,59.10
2022-08-16T07:24:30.711Z,56.40
2022-08-16T07:27:01.932Z,56.13
2022-08-16T07:32:00.525Z,56.33
2022-08-16T07:34:35.050Z,56.38
2022-08-16T07:37:06.559Z,56.22
2022-08-16T07:39:33.900Z,57.13
2022-08-16T07:42:01.150Z,56.33
2022-08-16T07:44:28.928Z,57.63
2022-08-16T07:47:15.702Z,57.15
2022-08-16T07:49:53.212Z,59.10
2022-08-16T07:52:29.538Z,59.38
2022-08-16T07:54:59.047Z,58.60
2022-08-16T07:57:26.321Z,59.58
2022-08-16T07:59:57.103Z,59.13
2022-08-16T08:02:27.126Z,58.80
2022-08-16T08:04:55.694Z,56.90
2022-08-16T08:07:27.478Z,57.90
2022-08-16T08:09:55.032Z,59.00
2022-08-16T08:12:32.566Z,55.47
2022-08-16T08:15:10.200Z,55.67
2022-08-16T08:17:42.697Z,55.00
2022-08-16T08:20:26.084Z,55.60
2022-08-16T08:23:00.584Z,58.58
2022-08-16T08:25:54.403Z,57.17
2022-08-16T08:28:20.505Z,56.75
2022-08-16T08:30:51.638Z,56.85
2022-08-16T08:33:26.419Z,54.92
2022-08-16T08:36:00.791Z,57.55
2022-08-16T08:38:45.262Z,53.75
2022-08-16T08:41:13.527Z,51.83
2022-08-16T08:43:42.956Z,52.90
2022-08-16T08:46:17.826Z,50.95
2022-08-16T08:48:59.700Z,51.00
2022-08-16T08:51:35.785Z,52.53
2022-08-16T08:54:06.629Z,50.88
2022-08-16T08:56:37.237Z,51.88
2022-08-16T08:59:16.369Z,51.50
2022-08-16T09:01:57.416Z,51.78
2022-08-16T09:04:28.659Z,51.42
2022-08-16T09:06:58.502Z,50.63
2022-08-16T09:09:33.220Z,50.20
2022-08-16T09:12:05.962Z,49.97
2022-08-16T09:14:35.193Z,48.22
2022-08-16T09:17:21.512Z,46.97
2022-08-16T09:19:53.597Z,46.10
2022-08-16T09:22:23.334Z,44.38
2022-08-16T09:24:52.670Z,44.15
2022-08-16T09:27:20.016Z,42.97
2022-08-16T09:29:47.573Z,43.65
2022-08-16T09:32:30.723Z,39.50
2022-08-16T09:35:01.862Z,36.83
2022-08-16T09:37:30.525Z,37.40
2022-08-16T09:40:32.351Z,36.33
2022-08-16T09:42:56.632Z,38.03
2022-08-16T09:45:28.923Z,38.08
2022-08-16T09:47:58.248Z,38.35
2022-08-16T09:50:37.255Z,37.17
2022-08-16T09:53:15.058Z,38.50
2022-08-16T09:55:49.554Z,40.40
2022-08-16T09:58:41.727Z,39.42
2022-08-16T10:01:08.377Z,37.85
2022-08-16T10:03:35.716Z,37.67
2022-08-16T10:06:02.806Z,35.30
2022-08-16T10:08:32.095Z,34.38
2022-08-16T10:11:32.554Z,34.38
2022-08-16T10:14:19.917Z,35.17
2022-08-16T10:17:00.035Z,35.17
2022-08-16T10:19:29.707Z,36.85
2022-08-16T10:21:59.794Z,36.33
2022-08-16T10:24:32.911Z,33.88
2022-08-16T10:27:25.833Z,35.20
2022-08-16T10:30:00.318Z,33.97
2022-08-16T10:32:32.124Z,30.88
2022-08-16T10:35:00.389Z,32.55
2022-08-16T10:37:35.668Z,33.00
2022-08-16T10:40:05.090Z,34.90
2022-08-16T10:42:31.924Z,32.30
2022-08-16T10:45:01.135Z,30.52
2022-08-16T10:47:32.153Z,30.52
2022-08-16T10:50:06.942Z,30.40
2022-08-16T10:52:46.933Z,30.05
2022-08-16T10:58:11.840Z,30.42
2022-08-16T11:00:40.778Z,30.65
2022-08-16T11:03:42.356Z,31.00
2022-08-16T11:05:59.704Z,29.77
2022-08-16T11:08:35.081Z,28.30
2022-08-16T11:11:12.855Z,28.35
2022-08-16T11:14:10.646Z,28.10
2022-08-16T11:19:22.917Z,27.63
2022-08-16T11:24:42.711Z,28.70
2022-08-16T11:27:23.554Z,27.63
2022-08-16T11:29:56.568Z,27.20
2022-08-16T11:32:31.012Z,26.48
2022-08-16T11:35:13.571Z,27.58
2022-08-16T11:38:46.917Z,26.73
2022-08-16T11:40:53.147Z,27.52
2022-08-16T11:43:24.867Z,26.30
2022-08-16T11:45:54.701Z,27.60
2022-08-16T11:48:25.110Z,26.73
2022-08-16T11:50:51.997Z,28.75
2022-08-16T11:53:20.257Z,26.98
2022-08-16T11:55:50.487Z,24.75
2022-08-16T11:58:26.612Z,26.40
2022-08-16T12:00:57.587Z,23.80
2022-08-16T12:03:34.931Z,26.38
2022-08-16T12:06:10.898Z,23.00
2022-08-16T12:08:51.689Z,21.65
2022-08-16T12:11:18.442Z,21.70
2022-08-16T12:13:49.957Z,25.80
2022-08-16T12:16:20.477Z,26.75
2022-08-16T12:21:14.605Z,28.42
2022-08-16T12:23:41.335Z,27.27
2022-08-16T12:26:10.783Z,25.73
2022-08-16T12:28:54.237Z,27.73
2022-08-16T12:31:23.011Z,27.73
2022-08-16T12:33:50.786Z,28.17
2022-08-16T12:36:22.199Z,25.40
2022-08-16T12:38:49.245Z,23.67
2022-08-16T12:41:25.027Z,21.33
2022-08-16T12:43:57.051Z,17.15
2022-08-16T12:46:28.518Z,17.65
2022-08-16T12:48:58.450Z,20.63
2022-08-16T12:51:59.429Z,21.02
2022-08-16T12:54:28.114Z,20.33
2022-08-16T12:56:56.211Z,15.88
2022-08-16T12:59:23.768Z,15.57
2022-08-16T13:01:57.999Z,14.85
2022-08-16T13:04:26.342Z,16.75
2022-08-16T13:06:53.428Z,14.25
2022-08-16T13:09:26.832Z,15.68
2022-08-16T13:12:15.923Z,14.45
2022-08-16T13:14:44.310Z,13.27
2022-08-16T13:17:18.702Z,18.45
2022-08-16T13:25:18.980Z,15.55
2022-08-16T13:28:02.532Z,12.57
2022-08-16T13:30:35.768Z,14.68
2022-08-16T13:33:10.716Z,14.00
2022-08-16T13:35:42.931Z,15.20
2022-08-16T13:40:48.950Z,17.52
2022-08-16T13:43:19.557Z,18.85
2022-08-16T13:45:46.303Z,17.13
2022-08-16T13:50:54.639Z,17.58
2022-08-16T13:53:24.194Z,16.77
2022-08-16T13:55:59.097Z,15.50
2022-08-16T13:58:37.028Z,15.85
2022-08-16T14:01:15.055Z,16.15
2022-08-16T14:03:44.501Z,15.80
2022-08-16T14:06:13.233Z,16.00
2022-08-16T14:08:43.111Z,15.55
2022-08-16T14:11:14.573Z,12.00
2022-08-16T14:13:43.200Z,12.70
2022-08-16T14:16:12.715Z,11.68
2022-08-16T14:18:52.986Z,10.00
2022-08-16T14:21:22.130Z,10.57
2022-08-16T14:23:52.089Z,10.45
2022-08-16T14:26:21.272Z,10.45
2022-08-16T14:28:50.701Z,9.73
2022-08-16T14:31:18.414Z,10.20
2022-08-16T14:33:45.957Z,10.85
2022-08-16T14:36:18.891Z,10.77
2022-08-16T14:38:57.451Z,12.00
2022-08-16T14:41:24.312Z,10.52
2022-08-16T14:43:51.244Z,10.88
2022-08-16T14:46:17.926Z,11.98
2022-08-16T14:48:44.645Z,13.27
2022-08-16T14:51:11.528Z,12.10
2022-08-16T14:53:38.637Z,15.73
2022-08-16T14:56:17.531Z,15.90
2022-08-16T14:58:59.495Z,16.27
2022-08-16T15:01:26.981Z,17.15
2022-08-16T15:04:32.445Z,18.73
2022-08-16T15:07:00.630Z,20.20
2022-08-16T15:09:27.533Z,19.73
2022-08-16T15:11:54.783Z,17.27
2022-08-16T15:14:21.580Z,17.20
2022-08-16T15:16:49.352Z,15.48
2022-08-16T15:19:16.076Z,14.60
2022-08-16T15:21:49.294Z,14.07
2022-08-16T15:24:22.391Z,12.70
2022-08-16T15:26:49.696Z,10.40
2022-08-16T15:29:16.741Z,9.82
2022-08-16T15:31:44.481Z,10.80
2022-08-16T15:34:22.004Z,9.10
2022-08-16T15:36:53.291Z,9.80
2022-08-16T15:39:30.519Z,9.48
2022-08-16T15:42:11.240Z,8.63
2022-08-16T15:44:52.003Z,8.57
2022-08-16T15:47:25.978Z,7.45
2022-08-16T15:49:55.659Z,7.00
2022-08-16T15:52:34.514Z,7.18
2022-08-16T15:55:07.529Z,7.47
2022-08-16T15:57:41.432Z,7.00
2022-08-16T16:00:14.894Z,7.80
2022-08-16T16:02:43.288Z,8.85
2022-08-16T16:05:10.629Z,8.40
2022-08-16T16:07:40.856Z,8.80
2022-08-16T16:10:22.208Z,9.30
2022-08-16T16:12:58.494Z,9.88
2022-08-16T16:15:31.758Z,9.55
2022-08-16T16:17:58.633Z,10.38
2022-08-16T16:20:28.021Z,10.35
2022-08-16T16:23:04.694Z,11.30
2022-08-16T16:25:43.936Z,11.70
2022-08-16T16:29:05.989Z,12.20
2022-08-16T16:31:11.749Z,12.85
2022-08-16T16:33:43.288Z,13.02
2022-08-16T16:36:14.820Z,13.50
2022-08-16T16:38:46.252Z,14.07
2022-08-16T16:41:14.387Z,14.88
2022-08-16T16:43:43.638Z,15.05
2022-08-16T16:46:32.787Z,15.00
2022-08-16T16:49:03.971Z,15.05
2022-08-16T16:51:31.769Z,14.82
2022-08-16T16:53:59.859Z,15.90
2022-08-16T16:56:37.528Z,15.07
2022-08-16T16:59:09.803Z,14.43
2022-08-16T17:01:59.561Z,13.45
2022-08-16T17:04:36.278Z,15.52
2022-08-16T17:07:10.669Z,14.65
2022-08-16T17:09:40.613Z,14.57
2022-08-16T17:12:09.539Z,13.50
2022-08-16T17:14:42.668Z,13.27
2022-08-16T17:17:11.584Z,13.98
2022-08-16T17:19:41.469Z,13.27
2022-08-16T17:22:14.057Z,13.82
2022-08-16T17:24:50.881Z,13.90
2022-08-16T17:27:32.396Z,13.77
2022-08-16T17:30:02.636Z,14.32
2022-08-16T17:32:44.567Z,13.77
2022-08-16T17:35:18.992Z,14.05
2022-08-16T17:37:51.040Z,14.05
2022-08-16T17:40:40.792Z,13.52
2022-08-16T17:43:18.573Z,12.35
2022-08-16T17:45:46.204Z,13.30
2022-08-16T17:48:15.540Z,12.00
2022-08-16T17:50:43.088Z,11.38
2022-08-16T17:53:11.891Z,12.38
2022-08-16T17:55:42.177Z,11.23
2022-08-16T17:58:23.486Z,11.45
2022-08-16T18:00:57.524Z,10.80
2022-08-16T18:04:08.875Z,10.15
2022-08-16T18:06:18.945Z,9.95
2022-08-16T18:08:48.481Z,10.00
2022-08-16T18:11:18.179Z,10.13
2022-08-16T18:13:48.428Z,10.45
2022-08-16T18:16:16.641Z,10.97
2022-08-16T18:18:46.088Z,11.90
2022-08-16T18:21:33.556Z,10.70
2022-08-16T18:24:02.758Z,17.95
2022-08-16T18:26:29.619Z,11.43
2022-08-16T18:28:56.403Z,11.82
2022-08-16T18:31:23.300Z,13.88
2022-08-16T18:33:55.807Z,15.30
2022-08-16T18:36:24.395Z,14.20
2022-08-16T18:38:52.161Z,15.32
2022-08-16T18:41:20.696Z,17.38
2022-08-16T18:44:23.016Z,20.70
2022-08-16T18:46:42.132Z,20.73
2022-08-16T18:49:09.143Z,22.25
2022-08-16T18:51:42.592Z,24.38
2022-08-16T18:54:11.194Z,24.73
2022-08-16T18:56:55.680Z,24.25
2022-08-16T18:59:22.849Z,24.25
2022-08-16T19:01:50.419Z,27.10
2022-08-16T19:04:54.878Z,29.27
2022-08-16T19:07:04.289Z,30.67
2022-08-16T19:09:35.698Z,29.83
2022-08-16T19:12:06.138Z,31.70
2022-08-16T19:14:32.950Z,31.65
2022-08-16T19:16:59.728Z,31.35
2022-08-16T19:19:26.565Z,31.73
2022-08-16T19:21:54.340Z,29.83
2022-08-16T19:24:21.116Z,32.45
2022-08-16T19:26:49.660Z,31.55
2022-08-16T19:29:16.436Z,33.28
2022-08-16T19:31:46.551Z,35.17
2022-08-16T19:34:17.946Z,36.95
2022-08-16T19:36:47.551Z,37.80
2022-08-16T19:39:17.945Z,37.85
2022-08-16T19:41:53.360Z,36.85
2022-08-16T19:44:27.207Z,38.10
2022-08-16T19:46:56.589Z,37.03
2022-08-16T19:49:23.317Z,39.50
2022-08-16T19:51:51.545Z,41.15
2022-08-16T19:54:21.368Z,41.63
2022-08-16T19:56:48.478Z,41.85
2022-08-16T19:59:22.158Z,41.38
2022-08-16T20:01:53.057Z,41.00
2022-08-16T20:04:22.039Z,38.58
2022-08-16T20:06:52.545Z,38.90
2022-08-16T20:09:23.646Z,40.45
2022-08-16T20:11:52.346Z,39.28
2022-08-16T20:14:25.261Z,43.08
2022-08-16T20:16:57.836Z,40.03
2022-08-16T20:19:27.219Z,39.80
2022-08-16T20:21:56.402Z,41.13
2022-08-16T20:24:34.236Z,42.42
2022-08-16T20:27:02.827Z,45.08
2022-08-16T20:29:29.955Z,45.60
2022-08-16T20:31:58.050Z,48.15
2022-08-16T20:34:24.994Z,47.45
2022-08-16T20:36:51.775Z,46.63
2022-08-16T20:39:18.644Z,46.03
2022-08-16T20:41:45.425Z,47.75
2022-08-16T20:44:12.918Z,47.78
2022-08-16T20:46:40.459Z,48.35
2022-08-16T20:49:10.125Z,45.63
2022-08-16T20:51:49.660Z,45.83
2022-08-16T20:54:19.498Z,46.55
2022-08-16T20:56:46.359Z,48.80
2022-08-16T20:59:13.276Z,46.45
2022-08-16T21:01:45.816Z,49.65
2022-08-16T21:04:16.992Z,47.42
2022-08-16T21:06:53.036Z,47.33
2022-08-16T21:09:23.640Z,48.78
2022-08-16T21:11:52.945Z,49.83
2022-08-16T21:14:22.373Z,52.33
2022-08-16T21:16:49.374Z,53.92
2022-08-16T21:19:16.358Z,53.05
2022-08-16T21:21:43.130Z,56.00
2022-08-16T21:24:10.001Z,55.88
2022-08-16T21:26:39.273Z,56.45
2022-08-16T21:29:09.660Z,56.42
2022-08-16T21:31:40.620Z,58.17
2022-08-16T21:34:08.688Z,57.15
2022-08-16T21:36:36.529Z,59.28
2022-08-16T21:39:06.300Z,63.83
2022-08-16T21:41:34.644Z,64.00
2022-08-16T21:44:01.839Z,66.95
2022-08-16T21:46:31.140Z,69.10
2022-08-16T21:49:00.524Z,66.57
2022-08-16T21:51:29.511Z,68.15
2022-08-16T21:53:56.901Z,68.13
2022-08-16T21:56:23.843Z,69.60
2022-08-16T21:58:53.187Z,73.20
2022-08-16T22:01:23.877Z,73.85
2022-08-16T22:04:01.580Z,74.87
2022-08-16T22:06:40.954Z,75.25
2022-08-16T22:09:10.116Z,76.55
2022-08-16T22:11:37.433Z,74.40
2022-08-16T22:14:04.771Z,76.38
2022-08-16T22:16:34.721Z,72.85
2022-08-16T22:19:02.587Z,76.72
2022-08-16T22:21:30.211Z,72.40
2022-08-16T22:23:58.787Z,73.22
2022-08-16T22:26:36.790Z,74.63
2022-08-16T22:29:09.882Z,72.47
2022-08-16T22:31:38.650Z,70.70
2022-08-16T22:34:06.285Z,74.20
2022-08-16T22:36:33.740Z,75.30
2022-08-16T22:39:03.691Z,72.78
2022-08-16T22:41:33.057Z,68.93
2022-08-16T22:44:02.011Z,75.47
2022-08-16T22:46:30.378Z,73.80
2022-08-16T22:48:57.661Z,69.38
2022-08-16T22:51:26.516Z,69.50
2022-08-16T22:53:55.285Z,67.63
2022-08-16T22:56:23.249Z,69.13
2022-08-16T22:58:50.241Z,70.50
2022-08-16T23:01:18.737Z,68.70
2022-08-16T23:03:45.784Z,67.05
2022-08-16T23:06:13.005Z,67.15
2022-08-16T23:08:41.749Z,65.07
2022-08-16T23:11:22.572Z,67.05
2022-08-16T23:13:54.920Z,67.95
2022-08-16T23:16:33.082Z,69.78
2022-08-16T23:19:04.231Z,63.90
2022-08-16T23:21:31.485Z,63.20
2022-08-16T23:23:58.381Z,70.53
2022-08-16T23:26:44.926Z,65.47
2022-08-16T23:29:15.919Z,63.42
2022-08-16T23:31:50.079Z,67.07
2022-08-16T23:34:20.722Z,66.30
2022-08-16T23:36:47.437Z,66.70
2022-08-16T23:39:16.378Z,68.78
2022-08-16T23:41:44.567Z,68.63
2022-08-16T23:44:46.859Z,68.63
2022-08-16T23:46:58.722Z,66.03
2022-08-16T23:49:59.360Z,69.72
2022-08-16T23:52:12.159Z,70.50
2022-08-16T23:54:39.398Z,70.70
2022-08-16T23:57:06.251Z,66.57
2022-08-16T23:59:52.705Z,68.32
